Albertson, North Carolina
Current Conditions -  °F | °C
As of 5:55 PM on Saturday 25 Oct 2014 (Local Time) from KDPL Reporting Station
Clear Clear  
Wind Chill: 19°   Ceiling: Unl
Heat Index: 19°   Visibility: 10mi
Dew Point:   Wind: 3mph
Humidity: 48%   Direction: 250°WSW
Pressure: 29.91"   Gusts: NA
Location:  35.11°N, 77.82°W
Report Text: KDPL 252155Z AUTO 25003KT 10SM CLR 19/08 A2991 RMK AO2 T01870075
Loading
Personal Weather Stations






























Interactive Weather Map
Tropical Storm Tracking
New forecast layout! Learn more

10-Day Weather Forecast

Advertisements
Track Severe Weather on mobile